www.cux-wetter.de
Wetterdaten: Woche 27.07.15 - 02.08.15 (KW31)
Datum Zeit Temp. A. Feuchte A. Luftdruck Regen Wind Richtung Sonnenschein Solar Taupunkt Windchill Windben
27.07.2015 00:00 13,5 C 95 % 1003,7 hPa 0,0 l/m 3,1 km/h (1 Bft) SO 0,00 h 0 W/m 12,7 C 13,5 C 6,5 km/h (2 Bft)
27.07.2015 01:00 13,3 C 95 % 1002,7 hPa 0,0 l/m 3,4 km/h (1 Bft) O-SO 0,00 h 0 W/m 12,6 C 13,3 C 8,7 km/h (2 Bft)
27.07.2015 02:00 13,1 C 95 % 1001,7 hPa 0,0 l/m 3,4 km/h (1 Bft) O-SO 0,00 h 0 W/m 12,3 C 13,1 C 8,7 km/h (2 Bft)
27.07.2015 03:00 13,1 C 94 % 1000,7 hPa 0,0 l/m 5,1 km/h (1 Bft) SO 0,00 h 0 W/m 12,1 C 13,0 C 11,7 km/h (2 Bft)
27.07.2015 04:00 13,1 C 94 % 999,9 hPa 0,2 l/m 6,1 km/h (2 Bft) SO 0,00 h 0 W/m 12,1 C 12,9 C 12,6 km/h (3 Bft)
27.07.2015 05:00 12,9 C 94 % 999,3 hPa 0,2 l/m 7,1 km/h (2 Bft) O-SO 0,00 h 0 W/m 12,0 C 12,4 C 14,9 km/h (3 Bft)
27.07.2015 06:00 12,9 C 94 % 998,6 hPa 0,0 l/m 8,2 km/h (2 Bft) SO 0,00 h 14 W/m 12,0 C 11,8 C 16,2 km/h (3 Bft)
27.07.2015 07:00 12,9 C 95 % 998,0 hPa 0,2 l/m 9,2 km/h (2 Bft) SO 0,00 h 33 W/m 12,2 C 11,3 C 19,7 km/h (3 Bft)
27.07.2015 08:00 13,0 C 96 % 997,4 hPa 0,2 l/m 9,8 km/h (2 Bft) SO 0,00 h 41 W/m 12,3 C 11,0 C 19,8 km/h (4 Bft)
27.07.2015 09:00 13,4 C 96 % 997,0 hPa 0,0 l/m 9,0 km/h (2 Bft) SO 0,00 h 78 W/m 12,8 C 11,9 C 18,1 km/h (3 Bft)
27.07.2015 10:00 14,2 C 95 % 996,8 hPa 0,0 l/m 8,6 km/h (2 Bft) S-SO 0,00 h 118 W/m 13,5 C 13,0 C 17,6 km/h (3 Bft)
27.07.2015 11:00 15,3 C 95 % 996,6 hPa 0,2 l/m 8,3 km/h (2 Bft) S 0,00 h 121 W/m 14,5 C 14,2 C 17,0 km/h (3 Bft)
27.07.2015 12:00 16,1 C 95 % 996,3 hPa 0,2 l/m 8,9 km/h (2 Bft) S-SO 0,08 h 242 W/m 15,3 C 14,8 C 17,8 km/h (3 Bft)
27.07.2015 13:00 17,5 C 91 % 996,0 hPa 0,0 l/m 9,0 km/h (2 Bft) S 0,00 h 276 W/m 15,9 C 16,2 C 19,2 km/h (3 Bft)
27.07.2015 14:00 18,6 C 84 % 995,5 hPa 0,0 l/m 10,3 km/h (2 Bft) S-SW 0,00 h 239 W/m 15,8 C 17,1 C 21,0 km/h (4 Bft)
27.07.2015 15:00 18,8 C 82 % 995,5 hPa 0,0 l/m 17,8 km/h (3 Bft) SW 0,17 h 299 W/m 15,6 C 15,1 C 31,4 km/h (5 Bft)
27.07.2015 16:00 18,5 C 82 % 995,5 hPa 0,0 l/m 19,4 km/h (3 Bft) SW 0,17 h 309 W/m 15,3 C 14,4 C 31,3 km/h (5 Bft)
27.07.2015 17:00 18,4 C 82 % 995,7 hPa 0,0 l/m 20,6 km/h (4 Bft) SW 0,08 h 212 W/m 15,2 C 14,0 C 33,8 km/h (5 Bft)
27.07.2015 18:00 17,8 C 84 % 996,0 hPa 0,0 l/m 18,7 km/h (3 Bft) SW 0,08 h 98 W/m 15,1 C 13,7 C 30,0 km/h (5 Bft)
27.07.2015 19:00 17,3 C 87 % 996,2 hPa 0,0 l/m 16,6 km/h (3 Bft) SW 0,00 h 71 W/m 15,1 C 13,5 C 27,2 km/h (5 Bft)
27.07.2015 20:00 16,4 C 93 % 996,3 hPa 2,0 l/m 15,0 km/h (3 Bft) W-SW 0,00 h 30 W/m 15,2 C 12,9 C 24,7 km/h (4 Bft)
27.07.2015 21:00 15,9 C 94 % 996,5 hPa 3,6 l/m 20,2 km/h (4 Bft) SW 0,00 h 0 W/m 15,0 C 10,9 C 32,5 km/h (5 Bft)
27.07.2015 22:00 15,4 C 95 % 996,6 hPa 2,6 l/m 14,9 km/h (3 Bft) SW 0,00 h 0 W/m 14,6 C 11,7 C 24,0 km/h (4 Bft)
27.07.2015 23:00 15,7 C 95 % 996,5 hPa 3,0 l/m 15,8 km/h (3 Bft) SW 0,00 h 0 W/m 14,9 C 11,8 C 26,7 km/h (4 Bft)
28.07.2015 00:00 15,8 C 95 % 996,4 hPa 0,6 l/m 17,4 km/h (3 Bft) SW 0,00 h 0 W/m 14,9 C 11,4 C 29,0 km/h (5 Bft)
28.07.2015 01:00 15,8 C 93 % 996,3 hPa 0,0 l/m 18,6 km/h (3 Bft) SW 0,00 h 0 W/m 14,7 C 11,1 C 30,1 km/h (5 Bft)
28.07.2015 02:00 15,7 C 92 % 996,1 hPa 0,0 l/m 20,0 km/h (4 Bft) S-SW 0,00 h 0 W/m 14,5 C 10,7 C 31,8 km/h (5 Bft)
28.07.2015 03:00 15,7 C 91 % 996,0 hPa 0,0 l/m 21,3 km/h (4 Bft) SW 0,00 h 0 W/m 14,2 C 10,4 C 34,6 km/h (5 Bft)
28.07.2015 04:00 15,5 C 91 % 996,0 hPa 0,2 l/m 20,5 km/h (4 Bft) SW 0,00 h 0 W/m 14,1 C 10,2 C 34,1 km/h (5 Bft)
28.07.2015 05:00 15,1 C 94 % 995,8 hPa 1,2 l/m 18,8 km/h (3 Bft) SW 0,00 h 0 W/m 14,1 C 10,2 C 31,9 km/h (5 Bft)
28.07.2015 06:00 15,2 C 93 % 995,9 hPa 0,0 l/m 21,2 km/h (4 Bft) SW 0,00 h 26 W/m 14,1 C 9,7 C 33,9 km/h (5 Bft)
28.07.2015 07:00 15,7 C 92 % 996,4 hPa 0,0 l/m 20,5 km/h (4 Bft) W-SW 0,00 h 87 W/m 14,3 C 10,5 C 34,1 km/h (5 Bft)
28.07.2015 08:00 16,0 C 90 % 996,9 hPa 0,0 l/m 20,4 km/h (4 Bft) W-SW 0,08 h 123 W/m 14,4 C 11,0 C 33,5 km/h (5 Bft)
28.07.2015 09:00 16,6 C 88 % 997,2 hPa 0,0 l/m 17,7 km/h (3 Bft) SW 0,08 h 184 W/m 14,6 C 12,4 C 29,3 km/h (5 Bft)
28.07.2015 10:00 17,1 C 83 % 997,8 hPa 0,0 l/m 15,3 km/h (3 Bft) W-SW 0,08 h 270 W/m 14,2 C 13,7 C 28,8 km/h (5 Bft)
28.07.2015 11:00 17,1 C 84 % 998,3 hPa 0,0 l/m 16,4 km/h (3 Bft) SW 0,00 h 166 W/m 14,4 C 13,3 C 29,5 km/h (5 Bft)
28.07.2015 12:00 17,6 C 86 % 998,7 hPa 0,0 l/m 16,5 km/h (3 Bft) SW 0,33 h 402 W/m 15,1 C 13,9 C 28,3 km/h (5 Bft)
28.07.2015 13:00 18,1 C 83 % 999,0 hPa 0,0 l/m 17,3 km/h (3 Bft) W-SW 0,50 h 460 W/m 15,1 C 14,4 C 29,1 km/h (5 Bft)
28.07.2015 14:00 18,1 C 81 % 999,2 hPa 0,0 l/m 19,2 km/h (3 Bft) W-SW 0,25 h 390 W/m 14,8 C 13,9 C 31,1 km/h (5 Bft)
28.07.2015 15:00 16,2 C 92 % 999,5 hPa 4,6 l/m 16,8 km/h (3 Bft) SW 0,00 h 104 W/m 14,9 C 12,2 C 26,9 km/h (4 Bft)
28.07.2015 16:00 15,5 C 94 % 999,6 hPa 11,6 l/m 13,4 km/h (3 Bft) S-SW 0,00 h 39 W/m 14,6 C 12,4 C 24,3 km/h (4 Bft)
28.07.2015 17:00 15,9 C 94 % 999,8 hPa 0,4 l/m 19,7 km/h (3 Bft) SW 0,08 h 142 W/m 14,9 C 11,0 C 34,5 km/h (5 Bft)
28.07.2015 18:00 15,5 C 93 % 1000,2 hPa 1,0 l/m 21,1 km/h (4 Bft) W-SW 0,00 h 88 W/m 14,3 C 10,1 C 40,8 km/h (6 Bft)
28.07.2015 19:00 15,3 C 91 % 1000,7 hPa 0,0 l/m 19,1 km/h (3 Bft) SW 0,00 h 23 W/m 13,9 C 10,5 C 37,0 km/h (5 Bft)
28.07.2015 20:00 15,5 C 88 % 1000,9 hPa 0,2 l/m 17,1 km/h (3 Bft) W-SW 0,00 h 14 W/m 13,6 C 11,2 C 33,4 km/h (5 Bft)
28.07.2015 21:00 15,8 C 86 % 1001,1 hPa 0,0 l/m 17,2 km/h (3 Bft) S-SW 0,00 h 0 W/m 13,4 C 11,5 C 30,5 km/h (5 Bft)
28.07.2015 22:00 15,7 C 83 % 1001,3 hPa 0,0 l/m 17,1 km/h (3 Bft) SW 0,00 h 0 W/m 12,9 C 11,4 C 28,6 km/h (5 Bft)
28.07.2015 23:00 15,3 C 85 % 1001,3 hPa 0,0 l/m 17,6 km/h (3 Bft) S-SW 0,00 h 0 W/m 12,7 C 10,8 C 30,2 km/h (5 Bft)
29.07.2015 00:00 14,9 C 88 % 1001,4 hPa 0,0 l/m 19,5 km/h (3 Bft) SW 0,00 h 0 W/m 12,9 C 9,8 C 30,6 km/h (5 Bft)
29.07.2015 01:00 14,7 C 89 % 1001,1 hPa 0,0 l/m 19,5 km/h (3 Bft) SW 0,00 h 0 W/m 12,9 C 9,5 C 32,5 km/h (5 Bft)
29.07.2015 02:00 14,7 C 89 % 1000,8 hPa 0,0 l/m 18,4 km/h (3 Bft) SW 0,00 h 0 W/m 12,9 C 9,7 C 30,3 km/h (5 Bft)
29.07.2015 03:00 14,6 C 90 % 1000,8 hPa 0,4 l/m 17,4 km/h (3 Bft) S-SW 0,00 h 0 W/m 13,0 C 10,0 C 27,9 km/h (5 Bft)
29.07.2015 04:00 14,1 C 94 % 1000,8 hPa 5,4 l/m 15,7 km/h (3 Bft) SW 0,00 h 0 W/m 13,1 C 9,9 C 26,3 km/h (4 Bft)
29.07.2015 05:00 13,8 C 95 % 1001,0 hPa 6,8 l/m 14,1 km/h (3 Bft) S-SW 0,00 h 0 W/m 13,0 C 10,1 C 26,4 km/h (4 Bft)
29.07.2015 06:00 13,7 C 95 % 1001,0 hPa 0,4 l/m 15,9 km/h (3 Bft) SW 0,00 h 14 W/m 12,8 C 9,3 C 26,4 km/h (4 Bft)
29.07.2015 07:00 13,9 C 93 % 1001,0 hPa 0,0 l/m 18,7 km/h (3 Bft) SW 0,08 h 94 W/m 12,8 C 8,8 C 30,3 km/h (5 Bft)
29.07.2015 08:00 14,2 C 89 % 1001,0 hPa 0,0 l/m 20,3 km/h (4 Bft) W-SW 0,08 h 110 W/m 12,4 C 8,6 C 31,9 km/h (5 Bft)
29.07.2015 09:00 14,8 C 84 % 1001,0 hPa 0,0 l/m 22,3 km/h (4 Bft) SW 0,42 h 266 W/m 12,1 C 8,9 C 37,4 km/h (5 Bft)
29.07.2015 10:00 15,2 C 80 % 1001,1 hPa 0,0 l/m 23,3 km/h (4 Bft) W-SW 0,50 h 341 W/m 11,8 C 9,3 C 36,6 km/h (5 Bft)
29.07.2015 11:00 16,2 C 74 % 1000,8 hPa 0,0 l/m 21,8 km/h (4 Bft) SW 0,58 h 572 W/m 11,5 C 10,9 C 35,8 km/h (5 Bft)
29.07.2015 12:00 16,6 C 72 % 1000,7 hPa 0,2 l/m 19,3 km/h (3 Bft) SW 0,50 h 495 W/m 11,5 C 12,0 C 35,3 km/h (5 Bft)
29.07.2015 13:00 15,7 C 76 % 1000,9 hPa 0,0 l/m 19,6 km/h (3 Bft) SW 0,33 h 422 W/m 11,3 C 10,7 C 33,8 km/h (5 Bft)
29.07.2015 14:00 16,4 C 71 % 1000,7 hPa 0,0 l/m 23,2 km/h (4 Bft) SW 0,58 h 563 W/m 11,2 C 10,9 C 38,1 km/h (6 Bft)
29.07.2015 15:00 16,4 C 69 % 1000,6 hPa 0,2 l/m 25,1 km/h (4 Bft) SW 0,50 h 435 W/m 10,8 C 10,6 C 40,5 km/h (6 Bft)
29.07.2015 16:00 14,1 C 85 % 1000,5 hPa 1,4 l/m 22,1 km/h (4 Bft) SW 0,10 h 188 W/m 11,6 C 8,1 C 35,1 km/h (5 Bft)
29.07.2015 17:00 14,5 C 84 % 1000,4 hPa 0,2 l/m 24,5 km/h (4 Bft) SW 0,10 h 157 W/m 11,7 C 8,0 C 37,2 km/h (5 Bft)
29.07.2015 18:00 13,3 C 89 % 1000,1 hPa 0,8 l/m 23,7 km/h (4 Bft) SW 0,00 h 46 W/m 11,6 C 6,7 C 38,3 km/h (6 Bft)
29.07.2015 19:00 13,2 C 92 % 999,7 hPa 3,4 l/m 25,4 km/h (4 Bft) W-SW 0,00 h 16 W/m 11,9 C 6,1 C 41,1 km/h (6 Bft)
29.07.2015 20:00 13,4 C 94 % 1000,0 hPa 3,2 l/m 21,0 km/h (4 Bft) W-SW 0,00 h 7 W/m 12,5 C 7,5 C 38,5 km/h (6 Bft)
29.07.2015 21:00 13,8 C 93 % 1000,7 hPa 0,8 l/m 20,4 km/h (4 Bft) W 0,00 h 0 W/m 12,7 C 8,1 C 37,9 km/h (6 Bft)
29.07.2015 22:00 14,1 C 90 % 1001,6 hPa 0,4 l/m 20,9 km/h (4 Bft) W 0,00 h 0 W/m 12,5 C 8,3 C 38,2 km/h (6 Bft)
29.07.2015 23:00 14,3 C 89 % 1002,2 hPa 0,6 l/m 21,9 km/h (4 Bft) W 0,00 h 0 W/m 12,4 C 8,3 C 41,8 km/h (6 Bft)
30.07.2015 00:00 14,5 C 86 % 1002,8 hPa 0,0 l/m 22,2 km/h (4 Bft) W 0,00 h 0 W/m 12,2 C 8,6 C 39,0 km/h (6 Bft)
30.07.2015 01:00 14,6 C 85 % 1002,9 hPa 0,2 l/m 23,3 km/h (4 Bft) W 0,00 h 0 W/m 12,2 C 8,5 C 42,0 km/h (6 Bft)
30.07.2015 02:00 14,4 C 90 % 1003,0 hPa 1,0 l/m 21,6 km/h (4 Bft) W 0,00 h 0 W/m 12,8 C 8,5 C 39,8 km/h (6 Bft)
30.07.2015 03:00 14,3 C 89 % 1003,4 hPa 0,0 l/m 20,6 km/h (4 Bft) W 0,00 h 0 W/m 12,5 C 8,7 C 38,3 km/h (6 Bft)
30.07.2015 04:00 14,4 C 88 % 1003,8 hPa 0,0 l/m 21,0 km/h (4 Bft) W 0,00 h 0 W/m 12,4 C 8,7 C 40,0 km/h (6 Bft)
30.07.2015 05:00 14,2 C 87 % 1004,3 hPa 0,2 l/m 21,0 km/h (4 Bft) W 0,00 h 5 W/m 12,1 C 8,5 C 39,8 km/h (6 Bft)
30.07.2015 06:00 14,4 C 84 % 1004,8 hPa 0,0 l/m 21,3 km/h (4 Bft) W 0,00 h 11 W/m 11,7 C 8,6 C 38,9 km/h (6 Bft)
30.07.2015 07:00 14,6 C 81 % 1005,4 hPa 0,0 l/m 19,6 km/h (3 Bft) W-NW 0,00 h 36 W/m 11,4 C 9,4 C 36,4 km/h (5 Bft)
30.07.2015 08:00 14,7 C 78 % 1006,0 hPa 0,0 l/m 18,7 km/h (3 Bft) W 0,00 h 77 W/m 11,0 C 9,8 C 34,6 km/h (5 Bft)
30.07.2015 09:00 15,3 C 75 % 1006,7 hPa 0,0 l/m 19,5 km/h (3 Bft) W 0,00 h 184 W/m 10,8 C 10,2 C 35,3 km/h (5 Bft)
30.07.2015 10:00 15,9 C 73 % 1007,2 hPa 0,0 l/m 18,8 km/h (3 Bft) W 0,45 h 338 W/m 11,2 C 11,3 C 35,4 km/h (5 Bft)
30.07.2015 11:00 16,4 C 73 % 1008,0 hPa 0,0 l/m 19,5 km/h (3 Bft) W 0,70 h 556 W/m 11,5 C 11,7 C 36,4 km/h (5 Bft)
30.07.2015 12:00 15,9 C 75 % 1008,6 hPa 0,0 l/m 18,2 km/h (3 Bft) W 0,00 h 251 W/m 11,6 C 11,5 C 33,3 km/h (5 Bft)
30.07.2015 13:00 15,7 C 75 % 1009,3 hPa 0,0 l/m 18,3 km/h (3 Bft) W 0,00 h 263 W/m 11,3 C 11,1 C 33,7 km/h (5 Bft)
30.07.2015 14:00 16,0 C 76 % 1010,0 hPa 0,0 l/m 18,6 km/h (3 Bft) W 0,25 h 357 W/m 11,7 C 11,4 C 33,6 km/h (5 Bft)
30.07.2015 15:00 14,5 C 85 % 1010,5 hPa 0,8 l/m 16,0 km/h (3 Bft) W 0,00 h 156 W/m 12,1 C 10,3 C 30,7 km/h (5 Bft)
30.07.2015 16:00 14,6 C 84 % 1011,0 hPa 0,0 l/m 18,5 km/h (3 Bft) W 0,00 h 132 W/m 11,9 C 9,7 C 33,9 km/h (5 Bft)
30.07.2015 17:00 15,1 C 80 % 1011,5 hPa 0,2 l/m 17,5 km/h (3 Bft) W-NW 0,00 h 140 W/m 11,6 C 10,6 C 32,3 km/h (5 Bft)
30.07.2015 18:00 13,9 C 87 % 1012,0 hPa 0,2 l/m 16,2 km/h (3 Bft) W 0,00 h 71 W/m 11,8 C 9,5 C 27,9 km/h (5 Bft)
30.07.2015 19:00 13,8 C 85 % 1012,3 hPa 0,2 l/m 13,4 km/h (3 Bft) W 0,00 h 37 W/m 11,4 C 10,4 C 26,2 km/h (4 Bft)
30.07.2015 20:00 13,7 C 82 % 1012,9 hPa 0,0 l/m 14,0 km/h (3 Bft) W 0,00 h 19 W/m 10,7 C 10,0 C 26,6 km/h (4 Bft)
30.07.2015 21:00 13,9 C 81 % 1013,3 hPa 0,0 l/m 11,6 km/h (2 Bft) W 0,00 h 5 W/m 10,6 C 11,2 C 23,4 km/h (4 Bft)
30.07.2015 22:00 13,8 C 81 % 1013,7 hPa 0,0 l/m 13,0 km/h (3 Bft) W 0,00 h 0 W/m 10,6 C 10,5 C 25,5 km/h (4 Bft)
30.07.2015 23:00 14,1 C 73 % 1014,1 hPa 0,0 l/m 14,0 km/h (3 Bft) NW 0,00 h 0 W/m 9,3 C 10,5 C 27,6 km/h (5 Bft)
31.07.2015 00:00 14,1 C 74 % 1014,5 hPa 0,0 l/m 12,9 km/h (3 Bft) W 0,00 h 0 W/m 9,5 C 11,0 C 25,1 km/h (4 Bft)
31.07.2015 01:00 14,1 C 68 % 1014,7 hPa 0,0 l/m 13,2 km/h (3 Bft) W-NW 0,00 h 0 W/m 8,3 C 10,7 C 26,4 km/h (4 Bft)
31.07.2015 02:00 14,0 C 68 % 1014,9 hPa 0,0 l/m 11,9 km/h (2 Bft) NW 0,00 h 0 W/m 8,1 C 11,1 C 24,6 km/h (4 Bft)
31.07.2015 03:00 13,7 C 69 % 1015,1 hPa 0,0 l/m 9,8 km/h (2 Bft) W 0,00 h 0 W/m 8,2 C 11,9 C 21,6 km/h (4 Bft)
31.07.2015 04:00 13,7 C 74 % 1015,3 hPa 0,0 l/m 9,8 km/h (2 Bft) W-NW 0,00 h 0 W/m 9,0 C 11,8 C 20,1 km/h (4 Bft)
31.07.2015 05:00 13,3 C 79 % 1015,4 hPa 0,2 l/m 8,8 km/h (2 Bft) W-NW 0,00 h 0 W/m 9,6 C 11,8 C 17,5 km/h (3 Bft)
31.07.2015 06:00 13,0 C 77 % 1015,7 hPa 0,0 l/m 9,9 km/h (2 Bft) W 0,00 h 19 W/m 9,0 C 11,0 C 21,0 km/h (4 Bft)
31.07.2015 07:00 13,5 C 70 % 1016,0 hPa 0,0 l/m 8,1 km/h (2 Bft) W 0,00 h 71 W/m 8,2 C 12,5 C 16,8 km/h (3 Bft)
31.07.2015 08:00 13,7 C 74 % 1016,7 hPa 0,0 l/m 7,5 km/h (2 Bft) W 0,00 h 78 W/m 9,2 C 12,9 C 17,0 km/h (3 Bft)
31.07.2015 09:00 14,6 C 68 % 1017,2 hPa 0,0 l/m 9,0 km/h (2 Bft) W-NW 0,40 h 284 W/m 8,7 C 13,2 C 18,4 km/h (3 Bft)
31.07.2015 10:00 15,1 C 67 % 1017,7 hPa 0,0 l/m 11,0 km/h (2 Bft) W 0,05 h 237 W/m 9,1 C 12,9 C 22,1 km/h (4 Bft)
31.07.2015 11:00 15,5 C 65 % 1018,0 hPa 0,0 l/m 10,7 km/h (2 Bft) W 0,25 h 398 W/m 8,9 C 13,4 C 21,5 km/h (4 Bft)
31.07.2015 12:00 17,3 C 55 % 1018,1 hPa 0,0 l/m 12,3 km/h (2 Bft) W 1,00 h 661 W/m 8,1 C 14,9 C 22,4 km/h (4 Bft)
31.07.2015 13:00 17,0 C 60 % 1018,5 hPa 0,0 l/m 10,9 km/h (2 Bft) W-NW 0,65 h 475 W/m 9,2 C 15,0 C 21,5 km/h (4 Bft)
31.07.2015 14:00 17,7 C 56 % 1018,7 hPa 0,0 l/m 10,0 km/h (2 Bft) W-NW 0,90 h 795 W/m 8,8 C 16,1 C 19,5 km/h (3 Bft)
31.07.2015 15:00 17,9 C 58 % 1018,7 hPa 0,0 l/m 8,5 km/h (2 Bft) W 0,85 h 614 W/m 9,5 C 16,9 C 16,7 km/h (3 Bft)
31.07.2015 16:00 16,9 C 62 % 1018,6 hPa 0,0 l/m 9,9 km/h (2 Bft) W 0,25 h 328 W/m 9,5 C 15,3 C 18,7 km/h (3 Bft)
31.07.2015 17:00 17,0 C 61 % 1018,6 hPa 0,0 l/m 9,0 km/h (2 Bft) NW 0,50 h 357 W/m 9,5 C 15,8 C 17,6 km/h (3 Bft)
31.07.2015 18:00 16,7 C 61 % 1018,5 hPa 0,0 l/m 7,5 km/h (2 Bft) W-NW 0,65 h 274 W/m 9,2 C 16,0 C 15,2 km/h (3 Bft)
31.07.2015 19:00 15,8 C 63 % 1018,3 hPa 0,0 l/m 6,0 km/h (2 Bft) N-NW 0,00 h 36 W/m 8,8 C 15,6 C 13,1 km/h (3 Bft)
31.07.2015 20:00 14,3 C 72 % 1018,0 hPa 0,0 l/m 2,7 km/h (1 Bft) NW 0,00 h 20 W/m 9,2 C 14,3 C 5,9 km/h (2 Bft)
31.07.2015 21:00 14,3 C 72 % 1018,0 hPa 0,0 l/m 2,6 km/h (1 Bft) W 0,00 h 8 W/m 9,3 C 14,3 C 6,1 km/h (2 Bft)
31.07.2015 22:00 12,4 C 79 % 1018,1 hPa 0,0 l/m 0,9 km/h (0 Bft) W 0,00 h 0 W/m 8,9 C 12,4 C 2,3 km/h (1 Bft)
31.07.2015 23:00 10,2 C 88 % 1018,0 hPa 0,0 l/m 0,0 km/h (0 Bft) N 0,00 h 0 W/m 8,3 C 10,2 C 0,0 km/h (0 Bft)
01.08.2015 00:00 9,2 C 91 % 1018,1 hPa 0,0 l/m 0,0 km/h (0 Bft) N 0,00 h 0 W/m 7,8 C 9,2 C 0,2 km/h (0 Bft)
01.08.2015 01:00 8,5 C 92 % 1018,2 hPa 0,0 l/m 0,1 km/h (0 Bft) W 0,00 h 0 W/m 7,3 C 8,5 C 0,6 km/h (0 Bft)
01.08.2015 02:00 8,2 C 93 % 1018,0 hPa 0,0 l/m 1,1 km/h (1 Bft) SO 0,00 h 0 W/m 7,0 C 8,2 C 3,0 km/h (1 Bft)
01.08.2015 03:00 8,5 C 92 % 1017,9 hPa 0,0 l/m 1,1 km/h (0 Bft) S-SO 0,00 h 0 W/m 7,3 C 8,5 C 3,1 km/h (1 Bft)
01.08.2015 04:00 8,2 C 93 % 1017,7 hPa 0,0 l/m 1,1 km/h (1 Bft) SO 0,00 h 0 W/m 7,1 C 8,2 C 3,1 km/h (1 Bft)
01.08.2015 05:00 7,8 C 94 % 1017,5 hPa 0,0 l/m 1,5 km/h (1 Bft) SO 0,00 h 6 W/m 7,0 C 7,8 C 3,7 km/h (1 Bft)
01.08.2015 06:00 8,1 C 95 % 1017,5 hPa 0,0 l/m 2,1 km/h (1 Bft) SO 0,00 h 25 W/m 7,3 C 8,1 C 4,3 km/h (1 Bft)
01.08.2015 07:00 9,1 C 93 % 1017,5 hPa 0,0 l/m 2,2 km/h (1 Bft) SO 0,00 h 29 W/m 8,0 C 9,1 C 4,8 km/h (1 Bft)
01.08.2015 08:00 11,8 C 86 % 1017,4 hPa 0,0 l/m 4,4 km/h (1 Bft) S-SO 0,75 h 238 W/m 9,5 C 11,8 C 10,2 km/h (2 Bft)
01.08.2015 09:00 14,8 C 73 % 1017,3 hPa 0,0 l/m 6,0 km/h (2 Bft) SO 1,00 h 429 W/m 10,0 C 14,5 C 12,8 km/h (3 Bft)
01.08.2015 10:00 16,8 C 65 % 1017,2 hPa 0,0 l/m 5,0 km/h (1 Bft) O-SO 1,00 h 551 W/m 10,1 C 16,8 C 11,1 km/h (2 Bft)
01.08.2015 11:00 18,3 C 59 % 1017,1 hPa 0,0 l/m 6,4 km/h (2 Bft) S-SO 1,00 h 593 W/m 10,2 C 17,9 C 13,4 km/h (3 Bft)
01.08.2015 12:00 19,5 C 55 % 1016,8 hPa 0,0 l/m 6,5 km/h (2 Bft) O-SO 1,00 h 646 W/m 10,1 C 19,2 C 13,9 km/h (3 Bft)
01.08.2015 13:00 20,5 C 51 % 1016,6 hPa 0,0 l/m 6,0 km/h (2 Bft) S-SO 0,95 h 746 W/m 10,1 C 20,2 C 12,5 km/h (2 Bft)
01.08.2015 14:00 20,9 C 52 % 1016,0 hPa 0,0 l/m 4,7 km/h (1 Bft) SO 1,00 h 720 W/m 10,6 C 20,8 C 10,3 km/h (2 Bft)
01.08.2015 15:00 21,2 C 54 % 1015,8 hPa 0,0 l/m 4,3 km/h (1 Bft) N-NO 0,90 h 598 W/m 11,4 C 21,2 C 9,9 km/h (2 Bft)
01.08.2015 16:00 20,6 C 54 % 1015,6 hPa 0,0 l/m 5,1 km/h (1 Bft) NO 0,90 h 463 W/m 10,9 C 20,6 C 11,4 km/h (2 Bft)
01.08.2015 17:00 21,1 C 54 % 1015,6 hPa 0,0 l/m 3,7 km/h (1 Bft) NO 1,00 h 430 W/m 11,5 C 21,1 C 8,2 km/h (2 Bft)
01.08.2015 18:00 20,0 C 60 % 1015,6 hPa 0,0 l/m 3,5 km/h (1 Bft) N-NW 0,15 h 179 W/m 11,9 C 20,0 C 7,9 km/h (2 Bft)
01.08.2015 19:00 19,2 C 70 % 1015,5 hPa 0,0 l/m 3,3 km/h (1 Bft) N 0,00 h 89 W/m 13,5 C 19,2 C 7,1 km/h (2 Bft)
01.08.2015 20:00 18,5 C 78 % 1015,6 hPa 0,0 l/m 3,1 km/h (1 Bft) N-NW 0,00 h 50 W/m 14,5 C 18,5 C 6,7 km/h (2 Bft)
01.08.2015 21:00 16,7 C 82 % 1016,2 hPa 0,0 l/m 3,0 km/h (1 Bft) N 0,00 h 7 W/m 13,7 C 16,7 C 6,9 km/h (2 Bft)
01.08.2015 22:00 15,9 C 89 % 1016,6 hPa 0,0 l/m 3,5 km/h (1 Bft) N 0,00 h 0 W/m 14,0 C 15,9 C 6,8 km/h (2 Bft)
01.08.2015 23:00 15,2 C 89 % 1016,9 hPa 0,0 l/m 1,2 km/h (1 Bft) N 0,00 h 0 W/m 13,4 C 15,2 C 3,0 km/h (1 Bft)
02.08.2015 00:00 13,9 C 92 % 1017,0 hPa 0,0 l/m 0,0 km/h (0 Bft) N 0,00 h 0 W/m 12,5 C 13,9 C 1,0 km/h (0 Bft)
02.08.2015 01:00 12,7 C 92 % 1017,1 hPa 0,0 l/m 0,0 km/h (0 Bft) N 0,00 h 0 W/m 11,4 C 12,7 C 0,6 km/h (0 Bft)
02.08.2015 02:00 12,1 C 94 % 1017,3 hPa 0,0 l/m 0,1 km/h (0 Bft) N 0,00 h 0 W/m 11,1 C 12,1 C 0,8 km/h (0 Bft)
02.08.2015 03:00 11,5 C 94 % 1017,4 hPa 0,0 l/m 0,3 km/h (0 Bft) N 0,00 h 0 W/m 10,5 C 11,5 C 1,2 km/h (1 Bft)
02.08.2015 04:00 11,1 C 94 % 1017,3 hPa 0,0 l/m 0,2 km/h (0 Bft) N 0,00 h 0 W/m 10,2 C 11,1 C 1,3 km/h (1 Bft)
02.08.2015 05:00 10,4 C 94 % 1017,5 hPa 0,0 l/m 0,4 km/h (0 Bft) N 0,00 h 5 W/m 9,5 C 10,4 C 1,6 km/h (1 Bft)
02.08.2015 06:00 10,1 C 95 % 1017,9 hPa 0,0 l/m 0,9 km/h (0 Bft) N 0,00 h 11 W/m 9,3 C 10,1 C 1,8 km/h (1 Bft)
02.08.2015 07:00 13,1 C 95 % 1018,4 hPa 0,0 l/m 2,1 km/h (1 Bft) W-NW 0,00 h 23 W/m 12,4 C 13,1 C 3,6 km/h (1 Bft)
02.08.2015 08:00 16,3 C 88 % 1018,8 hPa 0,0 l/m 4,6 km/h (1 Bft) W-SW 0,70 h 217 W/m 14,3 C 16,3 C 9,9 km/h (2 Bft)
02.08.2015 09:00 18,2 C 70 % 1019,1 hPa 0,0 l/m 7,1 km/h (2 Bft) W-SW 1,00 h 415 W/m 12,6 C 17,8 C 12,7 km/h (3 Bft)
02.08.2015 10:00 19,3 C 62 % 1019,5 hPa 0,0 l/m 6,9 km/h (2 Bft) SW 1,00 h 526 W/m 11,9 C 19,0 C 13,7 km/h (3 Bft)
02.08.2015 11:00 20,0 C 59 % 1020,1 hPa 0,0 l/m 7,4 km/h (2 Bft) W 1,00 h 545 W/m 11,7 C 19,5 C 15,3 km/h (3 Bft)
02.08.2015 12:00 20,5 C 56 % 1020,5 hPa 0,0 l/m 7,8 km/h (2 Bft) SW 1,00 h 605 W/m 11,4 C 19,9 C 14,7 km/h (3 Bft)
02.08.2015 13:00 21,1 C 50 % 1020,5 hPa 0,0 l/m 7,2 km/h (2 Bft) W-SW 0,90 h 549 W/m 10,4 C 20,8 C 13,4 km/h (3 Bft)
02.08.2015 14:00 22,0 C 49 % 1020,3 hPa 0,0 l/m 7,2 km/h (2 Bft) W 1,00 h 705 W/m 10,7 C 21,6 C 13,6 km/h (3 Bft)
02.08.2015 15:00 22,6 C 50 % 1020,2 hPa 0,0 l/m 5,3 km/h (1 Bft) NW 1,00 h 594 W/m 11,5 C 22,6 C 10,5 km/h (2 Bft)
02.08.2015 16:00 21,9 C 56 % 1020,3 hPa 0,0 l/m 6,1 km/h (2 Bft) NW 0,95 h 504 W/m 12,8 C 21,7 C 10,4 km/h (2 Bft)
02.08.2015 17:00 21,0 C 63 % 1020,1 hPa 0,0 l/m 3,9 km/h (1 Bft) N-NW 0,80 h 394 W/m 13,6 C 21,0 C 7,5 km/h (2 Bft)
02.08.2015 18:00 20,0 C 65 % 1020,0 hPa 0,0 l/m 3,0 km/h (1 Bft) N 0,65 h 215 W/m 13,2 C 20,0 C 6,4 km/h (2 Bft)
02.08.2015 19:00 19,0 C 71 % 1019,6 hPa 0,0 l/m 2,0 km/h (1 Bft) N-NO 0,00 h 65 W/m 13,6 C 19,0 C 4,6 km/h (1 Bft)
02.08.2015 20:00 17,6 C 80 % 1019,4 hPa 0,0 l/m 0,7 km/h (0 Bft) N-NO 0,00 h 33 W/m 14,1 C 17,6 C 2,4 km/h (1 Bft)
02.08.2015 21:00 16,3 C 85 % 1019,5 hPa 0,0 l/m 0,5 km/h (0 Bft) N 0,00 h 8 W/m 13,7 C 16,3 C 2,0 km/h (1 Bft)
02.08.2015 22:00 15,4 C 88 % 1019,6 hPa 0,0 l/m 0,9 km/h (0 Bft) NO 0,00 h 0 W/m 13,4 C 15,4 C 2,6 km/h (1 Bft)
02.08.2015 23:00 14,9 C 89 % 1019,5 hPa 0,0 l/m 1,1 km/h (1 Bft) O 0,00 h 0 W/m 13,2 C 14,9 C 3,5 km/h (1 Bft)
Min-Datum _ 01.08.15 01.08.15 27.07.15 - 31.07.15 - - - 01.08.15 29.07.15 31.07.15
_ Min-Zeit 02:27 13:48 14:45 - 22:54 - - - 02:24 19:51 22:54
Minimum _ 7,8 C 47 % 995,3 hPa - 0,0 km/h (0 Bft) - - - 6,7 C 4,8 C 0,0 km/h (0 Bft)
Max-Datum _ 02.08.15 27.07.15 02.08.15 28.07.15 29.07.15 - 27.07.15 29.07.15 27.07.15 02.08.15 30.07.15
_ Max-Zeit 15:45 09:05 12:24 16:50 19:51 - 12:45 12:10 13:45 15:45 04:12
Maximum _ 23,2 C 97 % 1020,6 hPa 11,6 l/m 31,8 km/h
W-SW (5 Bft)
- 0,08 h 976 W/m 16,5 C 23,2 C 61,2 km/h
W (7 Bft)
Durchschnitt _ 15,3 C 81 % 1008,3 hPa #59,4 l/m 11,9 km/h (2 Bft) W #32:20 h 240 W/m 11,9 C 12,7 C 21,6 km/h (4 Bft)
copyright by Holger Just